Time;durP1;ratioP1;P1;durP2;ratioP2;P2;SDS_P1;SDS_P2;PMS_P1;PMS_P2;Temp;Humidity;BMP_temperature;BMP_pressure;BME280_temperature;BME280_humidity;BME280_pressure;Samples;Min_cycle;Max_cycle;Signal;HPM_P1;HPM_P2
2021/12/13 00:01:55;;;;;;;1.93;1.83;;;;;;;;;;5046091;28;20697;-64
2021/12/13 00:04:47;;;;;;;1.97;1.90;;;;;;;;;;5045491;28;20605;-63
2021/12/13 00:07:38;;;;;;;2.20;2.10;;;;;;;;;;5048222;28;20728;-65
2021/12/13 00:10:33;;;;;;;2.47;2.37;;;;;;;;;;5037877;28;20209;-64
2021/12/13 00:13:25;;;;;;;2.23;2.13;;;;;;;;;;5039970;28;20373;-65
2021/12/13 00:16:13;;;;;;;2.10;2.00;;;;;;;;;;5043278;28;20310;-64
2021/12/13 00:19:05;;;;;;;2.03;1.93;;;;;;;;;;5040960;28;20204;-64
2021/12/13 00:22:02;;;;;;;2.10;2.00;;;;;;;;;;5022420;28;20304;-65
2021/12/13 00:24:51;;;;;;;2.03;1.93;;;;;;;;;;5014826;28;20241;-64
2021/12/13 00:27:42;;;;;;;1.57;1.57;;;;;;;;;;5026369;28;20288;-64
2021/12/13 00:30:41;;;;;;;1.90;1.80;;;;;;;;;;5030222;28;20240;-64
2021/12/13 00:33:36;;;;;;;1.90;1.80;;;;;;;;;;5027180;28;20672;-64
2021/12/13 00:36:31;;;;;;;1.93;1.83;;;;;;;;;;5014184;28;20228;-64
2021/12/13 00:39:22;;;;;;;1.87;1.77;;;;;;;;;;5028604;28;20291;-65
2021/12/13 00:42:09;;;;;;;1.50;1.50;;;;;;;;;;5018837;28;20684;-64
2021/12/13 00:45:02;;;;;;;1.70;1.60;;;;;;;;;;5027032;28;20204;-64
2021/12/13 00:47:51;;;;;;;1.60;1.60;;;;;;;;;;5025120;28;20218;-64
2021/12/13 00:50:42;;;;;;;1.53;1.53;;;;;;;;;;5028264;28;20290;-64
2021/12/13 00:53:35;;;;;;;1.87;1.77;;;;;;;;;;5029080;28;20224;-64
2021/12/13 00:56:51;;;;;;;1.53;1.53;;;;;;;;;;5040402;28;20273;-65
2021/12/13 00:59:40;;;;;;;1.53;1.50;;;;;;;;;;5028384;28;20257;-64
2021/12/13 01:02:31;;;;;;;1.50;1.50;;;;;;;;;;5023285;28;20290;-64
2021/12/13 01:05:34;;;;;;;1.73;1.73;;;;;;;;;;5029220;28;20225;-64
2021/12/13 01:08:57;;;;;;;1.27;1.27;;;;;;;;;;5026735;28;20331;-65
2021/12/13 01:11:52;;;;;;;1.60;1.60;;;;;;;;;;4998792;28;20349;-64
2021/12/13 01:14:57;;;;;;;1.53;1.50;;;;;;;;;;5029371;28;20320;-64
2021/12/13 01:17:54;;;;;;;1.63;1.63;;;;;;;;;;5019199;28;20216;-64
2021/12/13 01:20:59;;;;;;;1.67;1.60;;;;;;;;;;5019760;28;20707;-65
2021/12/13 01:23:53;;;;;;;1.53;1.53;;;;;;;;;;5014945;28;20201;-65
2021/12/13 01:26:44;;;;;;;1.30;1.30;;;;;;;;;;5025462;28;20208;-64
2021/12/13 01:29:31;;;;;;;1.57;1.57;;;;;;;;;;5028220;28;20310;-64
2021/12/13 01:32:18;;;;;;;1.70;1.70;;;;;;;;;;5025636;28;20205;-65
2021/12/13 01:35:09;;;;;;;1.90;1.80;;;;;;;;;;5026329;28;20208;-64
2021/12/13 01:38:03;;;;;;;1.50;1.50;;;;;;;;;;5028072;28;20344;-64
2021/12/13 01:40:54;;;;;;;1.60;1.60;;;;;;;;;;5024099;28;20211;-65
2021/12/13 01:43:44;;;;;;;1.67;1.57;;;;;;;;;;5026475;28;20228;-64
2021/12/13 01:46:36;;;;;;;1.40;1.40;;;;;;;;;;5022238;28;20236;-65
2021/12/13 01:49:28;;;;;;;1.70;1.60;;;;;;;;;;5031362;28;20217;-65
2021/12/13 01:52:18;;;;;;;1.50;1.50;;;;;;;;;;5021756;28;20220;-65
2021/12/13 01:55:11;;;;;;;1.20;1.20;;;;;;;;;;5026375;28;20212;-65
2021/12/13 01:58:21;;;;;;;1.20;1.20;;;;;;;;;;5028111;28;20197;-65
2021/12/13 02:01:11;;;;;;;1.40;1.40;;;;;;;;;;5031148;28;20212;-68
2021/12/13 02:04:02;;;;;;;1.37;1.33;;;;;;;;;;5030948;28;20241;-68
2021/12/13 02:07:00;;;;;;;1.50;1.50;;;;;;;;;;5024839;28;20200;-67
2021/12/13 02:09:48;;;;;;;1.37;1.37;;;;;;;;;;5016825;28;20209;-68
2021/12/13 02:12:42;;;;;;;1.30;1.30;;;;;;;;;;5045121;28;20495;-68
2021/12/13 02:18:41;;;;;;;1.23;1.23;;;;;;;;;;5022447;28;20208;-68
2021/12/13 02:21:31;;;;;;;1.50;1.50;;;;;;;;;;5021339;28;20233;-68
2021/12/13 02:24:22;;;;;;;1.13;1.13;;;;;;;;;;5025971;28;20240;-68
2021/12/13 02:27:11;;;;;;;1.10;1.10;;;;;;;;;;5029672;28;20292;-68
2021/12/13 02:30:01;;;;;;;1.17;1.17;;;;;;;;;;5026817;28;20290;-68
2021/12/13 02:32:49;;;;;;;0.90;0.90;;;;;;;;;;5030568;28;20209;-67
2021/12/13 02:35:41;;;;;;;1.20;1.20;;;;;;;;;;5020837;28;20245;-68
2021/12/13 02:38:28;;;;;;;1.00;1.00;;;;;;;;;;5024477;28;20576;-68
2021/12/13 02:41:21;;;;;;;1.17;1.17;;;;;;;;;;5027802;28;20303;-68
2021/12/13 02:44:13;;;;;;;1.30;1.30;;;;;;;;;;5028444;28;20308;-68
2021/12/13 02:47:06;;;;;;;1.10;1.10;;;;;;;;;;5030831;28;20296;-68
2021/12/13 02:49:54;;;;;;;1.27;1.27;;;;;;;;;;5028534;28;20693;-68
2021/12/13 02:52:41;;;;;;;1.13;1.13;;;;;;;;;;5030861;28;20343;-67
2021/12/13 02:55:31;;;;;;;1.00;1.00;;;;;;;;;;5016223;28;20296;-68
2021/12/13 02:58:23;;;;;;;1.27;1.27;;;;;;;;;;5027026;28;20205;-68
2021/12/13 03:01:14;;;;;;;1.37;1.37;;;;;;;;;;5012459;28;20209;-68
2021/12/13 03:04:05;;;;;;;1.00;1.00;;;;;;;;;;5025636;28;20233;-68
2021/12/13 03:06:59;;;;;;;1.00;1.00;;;;;;;;;;5018982;28;20206;-68
2021/12/13 03:09:49;;;;;;;0.90;0.90;;;;;;;;;;5031911;28;20709;-68
2021/12/13 03:12:36;;;;;;;1.30;1.30;;;;;;;;;;5033481;28;20204;-68
2021/12/13 03:15:27;;;;;;;1.03;1.03;;;;;;;;;;5030986;28;20201;-68
2021/12/13 03:18:20;;;;;;;1.00;1.00;;;;;;;;;;5028505;28;20753;-68
2021/12/13 03:21:29;;;;;;;1.20;1.20;;;;;;;;;;5028857;28;20282;-68
2021/12/13 03:24:26;;;;;;;1.33;1.33;;;;;;;;;;5032210;28;20587;-68
2021/12/13 03:27:33;;;;;;;1.00;1.00;;;;;;;;;;5029997;28;20209;-68
2021/12/13 03:30:24;;;;;;;1.27;1.27;;;;;;;;;;5029634;28;20236;-68
2021/12/13 03:33:14;;;;;;;1.10;1.10;;;;;;;;;;5030061;28;20196;-67
2021/12/13 03:36:06;;;;;;;0.97;0.97;;;;;;;;;;5028558;28;20248;-68
2021/12/13 03:38:55;;;;;;;1.20;1.20;;;;;;;;;;5030330;28;20676;-68
2021/12/13 03:41:46;;;;;;;1.23;1.23;;;;;;;;;;5024795;28;20224;-68
2021/12/13 03:44:37;;;;;;;1.20;1.20;;;;;;;;;;5029486;28;20209;-68
2021/12/13 03:47:27;;;;;;;1.10;1.10;;;;;;;;;;5028676;28;21009;-68
2021/12/13 03:50:19;;;;;;;1.20;1.20;;;;;;;;;;5033925;28;20677;-68
2021/12/13 03:53:10;;;;;;;1.47;1.47;;;;;;;;;;5027412;28;20688;-68
2021/12/13 03:56:02;;;;;;;1.30;1.30;;;;;;;;;;5018998;28;20252;-68
2021/12/13 03:58:52;;;;;;;1.30;1.30;;;;;;;;;;5028928;28;20213;-68
2021/12/13 04:01:44;;;;;;;1.47;1.43;;;;;;;;;;5028542;28;20512;-68
2021/12/13 04:04:38;;;;;;;1.70;1.60;;;;;;;;;;5028998;28;20236;-68
2021/12/13 04:07:30;;;;;;;1.93;1.83;;;;;;;;;;5028976;28;20246;-68
2021/12/13 04:10:20;;;;;;;1.90;1.80;;;;;;;;;;5023227;28;20209;-67
2021/12/13 04:13:13;;;;;;;2.30;2.20;;;;;;;;;;5024047;28;20595;-68
2021/12/13 04:16:12;;;;;;;2.20;2.10;;;;;;;;;;5020216;28;20261;-68
2021/12/13 04:19:12;;;;;;;2.50;2.40;;;;;;;;;;5010621;28;20244;-68
2021/12/13 04:22:04;;;;;;;2.40;2.30;;;;;;;;;;5038079;28;20317;-68
2021/12/13 04:24:55;;;;;;;2.60;2.40;;;;;;;;;;5046932;28;20807;-68
2021/12/13 04:27:46;;;;;;;2.30;2.20;;;;;;;;;;5034149;28;20291;-68
2021/12/13 04:30:38;;;;;;;2.30;2.20;;;;;;;;;;5044210;28;20803;-68
2021/12/13 04:33:28;;;;;;;2.60;2.50;;;;;;;;;;5049008;28;20309;-67
2021/12/13 04:36:18;;;;;;;2.50;2.40;;;;;;;;;;5047935;28;20260;-67
2021/12/13 04:39:10;;;;;;;2.40;2.30;;;;;;;;;;5047008;28;20319;-68
2021/12/13 04:42:00;;;;;;;2.37;2.27;;;;;;;;;;5048014;28;20291;-68
2021/12/13 04:44:51;;;;;;;2.30;2.20;;;;;;;;;;5046279;28;20735;-68
2021/12/13 04:47:44;;;;;;;2.30;2.20;;;;;;;;;;5047071;28;20686;-68
2021/12/13 04:50:35;;;;;;;2.30;2.20;;;;;;;;;;5042504;28;20204;-67
2021/12/13 04:53:24;;;;;;;2.40;2.30;;;;;;;;;;5039141;28;20703;-68
2021/12/13 04:56:15;;;;;;;1.97;1.87;;;;;;;;;;5047142;28;20211;-68
2021/12/13 04:59:05;;;;;;;2.00;1.90;;;;;;;;;;5046642;28;20672;-68
2021/12/13 05:01:56;;;;;;;2.17;2.07;;;;;;;;;;5046009;28;20274;-68
2021/12/13 05:04:43;;;;;;;2.10;2.00;;;;;;;;;;5047470;28;20236;-67
2021/12/13 05:07:31;;;;;;;2.27;2.17;;;;;;;;;;5047540;28;20683;-68
2021/12/13 05:10:19;;;;;;;2.10;2.00;;;;;;;;;;5046988;28;20212;-68
2021/12/13 05:13:11;;;;;;;2.27;2.17;;;;;;;;;;5047057;28;20334;-67
2021/12/13 05:16:07;;;;;;;2.07;1.97;;;;;;;;;;5049287;28;20249;-68
2021/12/13 05:18:56;;;;;;;2.03;1.93;;;;;;;;;;5037141;28;20598;-67
2021/12/13 05:21:47;;;;;;;2.10;2.00;;;;;;;;;;5032261;28;20243;-67
2021/12/13 05:24:41;;;;;;;2.23;2.13;;;;;;;;;;5051388;28;20235;-68
2021/12/13 05:27:33;;;;;;;1.90;1.80;;;;;;;;;;5050429;28;20258;-68
2021/12/13 05:30:23;;;;;;;1.87;1.77;;;;;;;;;;5032065;28;20216;-67
2021/12/13 05:33:15;;;;;;;1.50;1.50;;;;;;;;;;5051124;28;20213;-68
2021/12/13 05:36:08;;;;;;;1.93;1.83;;;;;;;;;;5035664;28;20290;-68
2021/12/13 05:39:05;;;;;;;1.93;1.83;;;;;;;;;;5048610;28;20613;-68
2021/12/13 05:41:55;;;;;;;1.83;1.73;;;;;;;;;;5042425;28;20275;-68
2021/12/13 05:44:45;;;;;;;1.70;1.70;;;;;;;;;;5050456;28;20294;-68
2021/12/13 05:47:31;;;;;;;1.50;1.50;;;;;;;;;;5040159;28;20219;-68
2021/12/13 05:50:27;;;;;;;1.57;1.47;;;;;;;;;;5050558;28;20209;-68
2021/12/13 05:53:18;;;;;;;1.90;1.80;;;;;;;;;;5049199;28;20767;-68
2021/12/13 05:56:07;;;;;;;1.60;1.60;;;;;;;;;;5049597;28;20246;-68
2021/12/13 05:58:57;;;;;;;1.87;1.87;;;;;;;;;;5051439;28;20255;-68
2021/12/13 06:02:08;;;;;;;1.73;1.63;;;;;;;;;;5046093;28;20216;-68
2021/12/13 06:05:00;;;;;;;1.50;1.50;;;;;;;;;;5043125;28;20224;-68
2021/12/13 06:07:55;;;;;;;1.60;1.60;;;;;;;;;;5048933;28;20209;-68
2021/12/13 06:10:49;;;;;;;1.50;1.50;;;;;;;;;;5050836;28;20232;-67
2021/12/13 06:13:58;;;;;;;1.40;1.40;;;;;;;;;;5038967;28;20208;-68
2021/12/13 06:16:55;;;;;;;1.53;1.53;;;;;;;;;;5046204;28;20311;-68
2021/12/13 06:19:49;;;;;;;1.50;1.50;;;;;;;;;;5045197;28;20249;-68
2021/12/13 06:22:36;;;;;;;1.33;1.33;;;;;;;;;;5048381;28;20259;-68
2021/12/13 06:25:24;;;;;;;1.57;1.57;;;;;;;;;;5049288;28;20208;-68
2021/12/13 06:28:20;;;;;;;1.53;1.53;;;;;;;;;;5051675;28;20235;-68
2021/12/13 06:31:09;;;;;;;1.50;1.50;;;;;;;;;;5036493;28;20686;-68
2021/12/13 06:33:59;;;;;;;1.40;1.40;;;;;;;;;;5050020;28;20211;-68
2021/12/13 06:36:48;;;;;;;1.30;1.30;;;;;;;;;;5046437;28;20237;-68
2021/12/13 06:39:35;;;;;;;1.83;1.73;;;;;;;;;;5037452;28;20250;-68
2021/12/13 06:42:27;;;;;;;1.70;1.60;;;;;;;;;;5042846;28;20586;-68
2021/12/13 06:45:27;;;;;;;2.00;1.90;;;;;;;;;;5042640;28;20709;-68
2021/12/13 06:48:14;;;;;;;1.77;1.67;;;;;;;;;;5046621;28;20219;-68
2021/12/13 06:51:01;;;;;;;1.30;1.30;;;;;;;;;;5048400;28;20768;-68
2021/12/13 06:54:02;;;;;;;1.67;1.57;;;;;;;;;;5044792;28;20254;-68
2021/12/13 06:56:55;;;;;;;1.60;1.60;;;;;;;;;;5047396;28;20224;-68
2021/12/13 06:59:52;;;;;;;1.50;1.50;;;;;;;;;;5049454;28;20216;-69
2021/12/13 07:02:42;;;;;;;1.87;1.77;;;;;;;;;;5048058;28;20211;-69
2021/12/13 07:05:31;;;;;;;1.67;1.57;;;;;;;;;;5044400;28;20317;-68
2021/12/13 07:08:23;;;;;;;1.90;1.80;;;;;;;;;;5049146;28;20216;-68
2021/12/13 07:11:13;;;;;;;1.83;1.73;;;;;;;;;;5042754;28;20205;-68
2021/12/13 07:14:03;;;;;;;1.60;1.50;;;;;;;;;;5043342;28;20661;-68
2021/12/13 07:16:54;;;;;;;1.63;1.63;;;;;;;;;;5048001;28;20291;-68
2021/12/13 07:19:43;;;;;;;1.50;1.50;;;;;;;;;;5045671;28;20301;-68
2021/12/13 07:22:31;;;;;;;1.53;1.50;;;;;;;;;;5035100;28;20813;-68
2021/12/13 07:25:18;;;;;;;1.87;1.77;;;;;;;;;;5047545;28;20212;-68
2021/12/13 07:28:07;;;;;;;1.37;1.37;;;;;;;;;;5048240;28;20287;-68
2021/12/13 07:30:55;;;;;;;1.60;1.50;;;;;;;;;;5048947;28;20654;-68
2021/12/13 07:33:45;;;;;;;1.37;1.37;;;;;;;;;;5041400;28;20204;-68
2021/12/13 07:36:32;;;;;;;1.30;1.30;;;;;;;;;;5032059;28;20562;-68
2021/12/13 07:39:20;;;;;;;1.43;1.43;;;;;;;;;;5046124;28;20291;-68
2021/12/13 07:42:10;;;;;;;1.77;1.67;;;;;;;;;;5036178;28;20201;-68
2021/12/13 07:44:57;;;;;;;1.50;1.40;;;;;;;;;;5049830;28;20200;-68
2021/12/13 07:47:45;;;;;;;1.27;1.27;;;;;;;;;;5041957;28;20285;-68
2021/12/13 07:50:35;;;;;;;1.30;1.30;;;;;;;;;;5049807;28;20251;-68
2021/12/13 07:53:22;;;;;;;1.40;1.30;;;;;;;;;;5047479;28;20343;-68
2021/12/13 07:56:12;;;;;;;1.03;1.03;;;;;;;;;;5048165;28;20283;-68
2021/12/13 07:59:02;;;;;;;0.90;0.90;;;;;;;;;;5046814;28;20305;-68
2021/12/13 08:01:56;;;;;;;1.10;1.10;;;;;;;;;;5042256;28;20244;-68
2021/12/13 08:04:47;;;;;;;1.47;1.37;;;;;;;;;;5046826;28;20236;-68
2021/12/13 08:07:43;;;;;;;1.60;1.60;;;;;;;;;;5046402;28;20205;-68
2021/12/13 08:10:33;;;;;;;1.73;1.63;;;;;;;;;;5048245;28;20216;-68
2021/12/13 08:13:23;;;;;;;1.60;1.60;;;;;;;;;;5047735;28;20697;-68
2021/12/13 08:16:10;;;;;;;1.60;1.50;;;;;;;;;;5042935;28;20204;-68
2021/12/13 08:19:07;;;;;;;1.80;1.47;;;;;;;;;;5039829;28;20696;-68
2021/12/13 08:21:57;;;;;;;1.83;1.73;;;;;;;;;;5041227;28;20700;-68
2021/12/13 08:24:48;;;;;;;1.80;1.70;;;;;;;;;;5064409;28;20235;-68
2021/12/13 08:27:41;;;;;;;1.80;1.70;;;;;;;;;;5046454;28;20202;-68
2021/12/13 08:30:31;;;;;;;1.57;1.47;;;;;;;;;;5045587;28;20207;-68
2021/12/13 08:33:21;;;;;;;1.40;1.30;;;;;;;;;;5046804;28;20235;-68
2021/12/13 08:36:11;;;;;;;1.90;1.80;;;;;;;;;;5046844;28;20256;-67
2021/12/13 08:39:07;;;;;;;1.80;1.70;;;;;;;;;;5048948;28;20223;-68
2021/12/13 08:42:00;;;;;;;1.80;1.70;;;;;;;;;;5043074;28;20262;-68
2021/12/13 08:44:54;;;;;;;1.50;1.40;;;;;;;;;;5046140;28;20208;-68
2021/12/13 08:47:45;;;;;;;1.90;1.83;;;;;;;;;;5045137;28;20624;-68
2021/12/13 08:50:36;;;;;;;1.57;1.57;;;;;;;;;;5045780;28;20714;-68
2021/12/13 08:53:29;;;;;;;1.77;1.77;;;;;;;;;;5048908;28;20292;-68
2021/12/13 08:56:20;;;;;;;1.87;1.77;;;;;;;;;;5045433;28;21023;-68
2021/12/13 08:59:20;;;;;;;1.60;1.50;;;;;;;;;;5042315;28;20237;-68
2021/12/13 09:02:11;;;;;;;1.60;1.60;;;;;;;;;;5045728;28;20226;-68
2021/12/13 09:05:04;;;;;;;1.40;1.40;;;;;;;;;;5054077;28;20219;-68
2021/12/13 09:07:56;;;;;;;1.43;1.40;;;;;;;;;;5037874;28;20699;-68
2021/12/13 09:10:47;;;;;;;1.50;1.50;;;;;;;;;;5049751;28;20605;-68
2021/12/13 09:13:40;;;;;;;1.40;1.40;;;;;;;;;;5035383;28;20660;-68
2021/12/13 09:16:42;;;;;;;1.27;1.27;;;;;;;;;;5050047;28;20211;-68
2021/12/13 09:19:32;;;;;;;1.20;1.20;;;;;;;;;;5051732;28;20220;-69
2021/12/13 09:22:23;;;;;;;1.17;1.17;;;;;;;;;;5051593;28;20268;-68
2021/12/13 09:25:15;;;;;;;1.30;1.30;;;;;;;;;;5043158;28;20213;-67
2021/12/13 09:28:05;;;;;;;1.20;1.20;;;;;;;;;;5037686;28;20251;-68
2021/12/13 09:30:55;;;;;;;1.13;1.13;;;;;;;;;;5050980;28;20217;-68
2021/12/13 09:33:47;;;;;;;0.90;0.90;;;;;;;;;;5041595;28;20208;-68
2021/12/13 09:36:39;;;;;;;1.10;1.10;;;;;;;;;;5052478;28;20211;-68
2021/12/13 09:39:29;;;;;;;1.10;1.10;;;;;;;;;;5051458;28;20228;-68
2021/12/13 09:42:17;;;;;;;0.87;0.87;;;;;;;;;;5051377;28;20608;-68
2021/12/13 09:45:08;;;;;;;0.80;0.80;;;;;;;;;;5049096;28;20290;-69
2021/12/13 09:47:55;;;;;;;0.70;0.70;;;;;;;;;;5051934;28;20216;-68
2021/12/13 09:50:48;;;;;;;1.00;1.00;;;;;;;;;;5051543;28;20212;-68
2021/12/13 09:53:38;;;;;;;1.43;1.07;;;;;;;;;;5050616;28;20226;-68
2021/12/13 09:56:28;;;;;;;0.93;0.93;;;;;;;;;;5040898;28;20197;-68
2021/12/13 09:59:21;;;;;;;0.60;0.60;;;;;;;;;;5046588;28;20248;-68
2021/12/13 10:02:14;;;;;;;0.80;0.80;;;;;;;;;;5048001;28;20216;-69
2021/12/13 10:05:05;;;;;;;0.80;0.80;;;;;;;;;;5043851;28;20240;-68
2021/12/13 10:07:59;;;;;;;0.73;0.73;;;;;;;;;;5048873;28;20294;-68
2021/12/13 10:10:50;;;;;;;0.90;0.90;;;;;;;;;;5040412;28;20340;-68
2021/12/13 10:13:39;;;;;;;0.80;0.80;;;;;;;;;;5047981;28;20753;-68
2021/12/13 10:16:31;;;;;;;0.90;0.90;;;;;;;;;;5048811;28;20291;-68
2021/12/13 10:19:22;;;;;;;0.70;0.70;;;;;;;;;;5048119;28;20233;-68
2021/12/13 10:22:11;;;;;;;2.83;0.80;;;;;;;;;;5051496;28;20701;-68
2021/12/13 10:25:06;;;;;;;0.57;0.57;;;;;;;;;;5049563;28;20699;-68
2021/12/13 10:27:54;;;;;;;0.70;0.70;;;;;;;;;;5047104;28;20348;-68
2021/12/13 10:30:46;;;;;;;0.70;0.70;;;;;;;;;;5051888;28;20383;-68
2021/12/13 10:33:35;;;;;;;0.60;0.60;;;;;;;;;;5047846;28;20210;-69
2021/12/13 10:36:22;;;;;;;0.60;0.60;;;;;;;;;;5050483;28;20217;-68
2021/12/13 10:39:12;;;;;;;0.60;0.60;;;;;;;;;;5051603;28;20220;-68
2021/12/13 10:42:05;;;;;;;0.70;0.70;;;;;;;;;;5048704;28;20349;-68
2021/12/13 10:44:53;;;;;;;1.03;0.60;;;;;;;;;;5068529;28;20280;-68
2021/12/13 10:47:43;;;;;;;0.70;0.70;;;;;;;;;;5048807;28;20201;-68
2021/12/13 10:50:34;;;;;;;0.80;0.80;;;;;;;;;;5036996;28;20675;-68
2021/12/13 10:53:25;;;;;;;0.70;0.70;;;;;;;;;;5048289;28;20215;-68
2021/12/13 10:56:15;;;;;;;0.73;0.73;;;;;;;;;;5046729;28;20213;-68
2021/12/13 10:59:06;;;;;;;0.80;0.80;;;;;;;;;;5051169;28;20302;-68
2021/12/13 11:01:55;;;;;;;0.67;0.67;;;;;;;;;;5046721;28;20298;-68
2021/12/13 11:04:47;;;;;;;0.77;0.77;;;;;;;;;;5048888;28;20228;-68
2021/12/13 11:07:35;;;;;;;0.57;0.57;;;;;;;;;;5043291;28;20678;-67
2021/12/13 11:10:25;;;;;;;0.60;0.60;;;;;;;;;;5040282;28;20216;-67
2021/12/13 11:13:12;;;;;;;0.90;0.90;;;;;;;;;;5058132;28;20219;-68
2021/12/13 11:16:06;;;;;;;0.90;0.90;;;;;;;;;;5051850;28;20215;-68
2021/12/13 11:18:53;;;;;;;0.60;0.60;;;;;;;;;;5050290;28;20359;-68
2021/12/13 11:21:43;;;;;;;0.80;0.80;;;;;;;;;;5047283;28;20301;-68
2021/12/13 11:24:32;;;;;;;0.70;0.70;;;;;;;;;;5042680;28;20210;-68
2021/12/13 11:27:22;;;;;;;0.87;0.87;;;;;;;;;;5044222;28;20208;-68
2021/12/13 11:30:13;;;;;;;0.90;0.90;;;;;;;;;;5047370;28;20212;-68
2021/12/13 11:33:44;;;;;;;0.90;0.90;;;;;;;;;;5049523;28;20671;-68
2021/12/13 11:37:08;;;;;;;0.60;0.60;;;;;;;;;;5044335;28;20302;-68
2021/12/13 11:40:12;;;;;;;2.00;1.00;;;;;;;;;;5048567;28;20235;-67
2021/12/13 11:43:18;;;;;;;0.60;0.60;;;;;;;;;;5047809;28;20674;-67
2021/12/13 11:46:26;;;;;;;0.67;0.60;;;;;;;;;;5042314;28;20213;-68
2021/12/13 11:49:42;;;;;;;0.70;0.70;;;;;;;;;;5048634;28;20235;-68
2021/12/13 11:53:03;;;;;;;0.70;0.70;;;;;;;;;;5029122;28;20292;-68
2021/12/13 11:56:07;;;;;;;0.67;0.67;;;;;;;;;;5034578;28;20255;-68
2021/12/13 11:59:10;;;;;;;0.77;0.77;;;;;;;;;;5034819;28;20379;-67
2021/12/13 12:02:08;;;;;;;1.33;0.77;;;;;;;;;;5039870;28;20676;-68
2021/12/13 12:05:33;;;;;;;0.73;0.73;;;;;;;;;;5040858;28;20312;-68
2021/12/13 12:08:47;;;;;;;0.80;0.80;;;;;;;;;;5046116;28;20367;-68
2021/12/13 12:11:57;;;;;;;0.97;0.97;;;;;;;;;;5047340;28;20232;-68
2021/12/13 12:14:47;;;;;;;0.93;0.93;;;;;;;;;;5044667;28;20221;-67
2021/12/13 12:17:35;;;;;;;1.07;1.07;;;;;;;;;;5037615;28;20281;-68
2021/12/13 12:20:28;;;;;;;0.90;0.90;;;;;;;;;;5043952;28;20262;-68
2021/12/13 12:23:26;;;;;;;1.13;1.13;;;;;;;;;;5031005;28;20213;-67
2021/12/13 12:26:15;;;;;;;1.27;1.27;;;;;;;;;;5048258;28;20294;-67
2021/12/13 12:29:08;;;;;;;1.03;1.03;;;;;;;;;;5045298;28;20207;-68
2021/12/13 12:32:02;;;;;;;1.60;0.97;;;;;;;;;;5044931;28;20672;-68
2021/12/13 12:34:57;;;;;;;1.30;1.30;;;;;;;;;;5041222;28;20815;-68
2021/12/13 12:38:18;;;;;;;0.90;0.90;;;;;;;;;;5041528;28;20348;-68
2021/12/13 12:41:45;;;;;;;1.07;1.07;;;;;;;;;;5044622;28;20202;-68
2021/12/13 12:44:39;;;;;;;0.90;0.90;;;;;;;;;;5048373;28;20215;-68
2021/12/13 12:48:20;;;;;;;1.17;1.17;;;;;;;;;;5047795;28;20201;-68
2021/12/13 12:51:10;;;;;;;0.80;0.80;;;;;;;;;;4974921;28;20370;-68
2021/12/13 12:54:00;;;;;;;1.00;1.00;;;;;;;;;;5038037;28;20250;-68
2021/12/13 12:56:54;;;;;;;1.13;0.90;;;;;;;;;;5036825;28;20212;-68
2021/12/13 12:59:43;;;;;;;0.70;0.70;;;;;;;;;;5049538;28;20354;-68
2021/12/13 13:02:33;;;;;;;0.87;0.87;;;;;;;;;;5045253;28;20208;-67
2021/12/13 13:05:22;;;;;;;0.90;0.90;;;;;;;;;;5047765;28;20300;-68
2021/12/13 13:08:10;;;;;;;2.13;0.87;;;;;;;;;;5044279;28;20617;-68
2021/12/13 13:14:10;;;;;;;0.73;0.73;;;;;;;;;;5022939;28;20207;-67
2021/12/13 13:17:04;;;;;;;0.77;0.77;;;;;;;;;;5038618;28;20212;-68
2021/12/13 13:19:51;;;;;;;1.33;0.80;;;;;;;;;;5049112;28;20256;-67
2021/12/13 13:22:42;;;;;;;0.67;0.67;;;;;;;;;;5046551;28;20265;-68
2021/12/13 13:25:31;;;;;;;0.70;0.70;;;;;;;;;;5046955;28;20290;-68
2021/12/13 13:28:22;;;;;;;0.87;0.80;;;;;;;;;;5045775;28;20584;-68
2021/12/13 13:31:17;;;;;;;0.97;0.97;;;;;;;;;;5039395;28;20273;-68
2021/12/13 13:34:06;;;;;;;0.60;0.60;;;;;;;;;;5045552;28;20200;-68
2021/12/13 13:36:56;;;;;;;0.73;0.73;;;;;;;;;;5046234;28;20356;-68
2021/12/13 13:39:45;;;;;;;1.17;0.80;;;;;;;;;;5034159;28;20358;-68
2021/12/13 13:42:35;;;;;;;1.00;1.00;;;;;;;;;;5045910;28;20216;-68
2021/12/13 13:45:25;;;;;;;0.97;0.97;;;;;;;;;;5048080;28;20220;-68
2021/12/13 13:48:17;;;;;;;0.90;0.90;;;;;;;;;;5050710;28;20321;-68
2021/12/13 13:51:07;;;;;;;1.00;0.80;;;;;;;;;;5050118;28;20209;-68
2021/12/13 13:53:55;;;;;;;1.03;0.93;;;;;;;;;;5050235;28;20246;-68
2021/12/13 13:56:45;;;;;;;1.20;1.10;;;;;;;;;;5050634;28;20209;-68
2021/12/13 13:59:40;;;;;;;1.20;1.10;;;;;;;;;;5048232;28;20225;-68
2021/12/13 14:02:31;;;;;;;1.23;1.23;;;;;;;;;;5049142;28;20231;-68
2021/12/13 14:05:19;;;;;;;1.47;1.37;;;;;;;;;;5046599;28;20259;-68
2021/12/13 14:08:19;;;;;;;2.40;1.50;;;;;;;;;;5051517;28;20205;-68
2021/12/13 14:11:14;;;;;;;2.10;2.00;;;;;;;;;;5047925;28;20286;-68
2021/12/13 14:14:03;;;;;;;1.97;1.87;;;;;;;;;;5048606;28;20251;-68
2021/12/13 14:16:53;;;;;;;1.90;1.80;;;;;;;;;;5049303;28;20807;-68
2021/12/13 14:19:44;;;;;;;1.80;1.80;;;;;;;;;;5043503;28;20387;-68
2021/12/13 14:22:33;;;;;;;1.80;1.70;;;;;;;;;;5027040;28;20668;-68
2021/12/13 14:25:34;;;;;;;2.30;1.57;;;;;;;;;;5030822;28;20201;-68
2021/12/13 14:28:28;;;;;;;1.77;1.67;;;;;;;;;;5023789;28;20294;-68
2021/12/13 14:31:17;;;;;;;1.80;1.70;;;;;;;;;;5026695;28;21089;-68
2021/12/13 14:34:07;;;;;;;1.53;1.47;;;;;;;;;;5029465;28;20217;-68
2021/12/13 14:36:56;;;;;;;1.80;1.70;;;;;;;;;;5030078;28;20252;-68
2021/12/13 14:39:50;;;;;;;1.70;1.60;;;;;;;;;;5028512;28;20233;-68
2021/12/13 14:42:38;;;;;;;1.90;1.80;;;;;;;;;;5031300;28;20669;-68
2021/12/13 14:45:25;;;;;;;1.80;1.70;;;;;;;;;;5025090;28;20205;-67
2021/12/13 14:48:12;;;;;;;1.40;1.40;;;;;;;;;;5026089;28;20204;-67
2021/12/13 14:51:01;;;;;;;1.43;1.43;;;;;;;;;;5029506;28;20210;-68
2021/12/13 14:53:48;;;;;;;1.37;1.37;;;;;;;;;;5028402;28;20617;-68
2021/12/13 14:56:38;;;;;;;1.50;1.40;;;;;;;;;;5029562;28;20241;-67
2021/12/13 14:59:25;;;;;;;1.50;1.50;;;;;;;;;;5027954;28;20225;-68
2021/12/13 15:02:16;;;;;;;1.60;1.50;;;;;;;;;;5028902;28;20215;-68
2021/12/13 15:05:07;;;;;;;1.60;1.57;;;;;;;;;;5031252;28;20327;-68
2021/12/13 15:07:56;;;;;;;1.63;1.53;;;;;;;;;;5031102;28;20300;-67
2021/12/13 15:10:46;;;;;;;1.43;1.33;;;;;;;;;;5029677;28;20237;-67
2021/12/13 15:13:42;;;;;;;1.20;1.20;;;;;;;;;;5030744;28;20294;-67
2021/12/13 15:16:34;;;;;;;1.23;1.23;;;;;;;;;;5031001;28;20249;-67
2021/12/13 15:19:22;;;;;;;1.40;1.40;;;;;;;;;;5030341;28;20228;-68
2021/12/13 15:22:09;;;;;;;1.07;1.07;;;;;;;;;;5024552;28;20282;-68
2021/12/13 15:24:59;;;;;;;1.20;1.10;;;;;;;;;;5028438;28;20262;-68
2021/12/13 15:27:47;;;;;;;0.97;0.97;;;;;;;;;;5025818;28;20355;-68
2021/12/13 15:30:37;;;;;;;1.10;1.10;;;;;;;;;;5013864;28;20202;-68
2021/12/13 15:33:25;;;;;;;0.97;0.97;;;;;;;;;;5026773;28;20292;-68
2021/12/13 15:36:16;;;;;;;1.30;1.30;;;;;;;;;;5029411;28;20244;-68
2021/12/13 15:39:07;;;;;;;1.10;1.10;;;;;;;;;;5027602;28;20346;-68
2021/12/13 15:41:59;;;;;;;1.27;1.27;;;;;;;;;;5024708;28;20306;-68
2021/12/13 15:44:46;;;;;;;1.33;1.27;;;;;;;;;;5027745;28;20278;-68
2021/12/13 15:48:04;;;;;;;1.10;1.10;;;;;;;;;;5026300;28;20212;-68
2021/12/13 15:50:52;;;;;;;1.00;1.00;;;;;;;;;;5027528;28;20209;-68
2021/12/13 15:53:41;;;;;;;1.10;1.10;;;;;;;;;;5027665;28;20289;-68
2021/12/13 15:56:31;;;;;;;1.50;1.00;;;;;;;;;;5025126;28;20279;-68
2021/12/13 15:59:22;;;;;;;1.50;1.40;;;;;;;;;;5028982;28;20284;-68
2021/12/13 16:02:13;;;;;;;1.00;1.00;;;;;;;;;;5023602;28;20212;-69
2021/12/13 16:05:06;;;;;;;1.10;1.10;;;;;;;;;;5024613;28;20225;-68
2021/12/13 16:07:52;;;;;;;1.50;1.20;;;;;;;;;;5015853;28;20213;-68
2021/12/13 16:10:44;;;;;;;1.10;1.10;;;;;;;;;;5023972;28;20213;-68
2021/12/13 16:13:30;;;;;;;1.20;1.20;;;;;;;;;;5039651;28;20200;-68
2021/12/13 16:16:21;;;;;;;1.20;1.20;;;;;;;;;;5021930;28;20241;-68
2021/12/13 16:19:08;;;;;;;1.10;1.10;;;;;;;;;;5014784;28;20282;-68
2021/12/13 16:21:57;;;;;;;1.20;1.20;;;;;;;;;;5038199;28;20247;-68
2021/12/13 16:24:43;;;;;;;1.50;1.50;;;;;;;;;;5038416;28;20256;-68
2021/12/13 16:27:41;;;;;;;1.37;1.37;;;;;;;;;;5046142;28;20290;-68
2021/12/13 16:30:33;;;;;;;1.37;1.37;;;;;;;;;;5043463;28;20275;-68
2021/12/13 16:33:25;;;;;;;4.77;1.40;;;;;;;;;;5034565;28;20302;-69
2021/12/13 16:36:15;;;;;;;1.33;1.33;;;;;;;;;;5042788;28;20304;-68
2021/12/13 16:39:10;;;;;;;1.50;1.40;;;;;;;;;;5038495;28;20630;-68
2021/12/13 16:42:01;;;;;;;1.80;1.70;;;;;;;;;;5045167;28;20204;-68
2021/12/13 16:44:49;;;;;;;1.80;1.70;;;;;;;;;;5039499;28;20280;-68
2021/12/13 16:47:36;;;;;;;1.40;1.40;;;;;;;;;;5048506;28;20196;-68
2021/12/13 16:50:26;;;;;;;1.37;1.37;;;;;;;;;;5044821;28;20714;-68
2021/12/13 16:53:18;;;;;;;1.53;1.53;;;;;;;;;;5036449;28;20304;-69
2021/12/13 16:56:09;;;;;;;1.40;1.40;;;;;;;;;;5045502;28;20248;-68
2021/12/13 16:58:58;;;;;;;1.87;1.43;;;;;;;;;;5046127;28;20795;-68
2021/12/13 17:01:49;;;;;;;1.67;1.57;;;;;;;;;;5044748;28;20218;-68
2021/12/13 17:04:41;;;;;;;1.80;1.70;;;;;;;;;;5042082;28;20603;-68
2021/12/13 17:07:33;;;;;;;2.20;2.00;;;;;;;;;;5033540;28;20671;-69
2021/12/13 17:10:32;;;;;;;1.90;1.80;;;;;;;;;;5046056;28;20202;-68
2021/12/13 17:13:33;;;;;;;1.90;1.80;;;;;;;;;;5044313;28;20223;-68
2021/12/13 17:16:24;;;;;;;1.70;1.60;;;;;;;;;;5048762;28;20342;-69
2021/12/13 17:19:13;;;;;;;1.53;1.53;;;;;;;;;;5045656;28;20209;-68
2021/12/13 17:22:07;;;;;;;1.50;1.50;;;;;;;;;;5048943;28;20687;-67